createdAt,value
2022-12-08T00:02:02.919Z,100987.78
2022-12-08T00:04:51.503Z,100979.03
2022-12-08T00:07:35.028Z,100970.28
2022-12-08T00:10:18.846Z,100965.03
2022-12-08T00:12:51.585Z,100958.88
2022-12-08T00:15:19.871Z,100935.13
2022-12-08T00:17:48.123Z,100948.41
2022-12-08T00:20:16.540Z,100935.25
2022-12-08T00:22:46.169Z,100931.72
2022-12-08T00:25:14.759Z,100933.50
2022-12-08T00:27:42.932Z,100926.50
2022-12-08T00:30:12.361Z,100917.72
2022-12-08T00:32:40.641Z,100912.47
2022-12-08T00:35:09.745Z,100911.59
2022-12-08T00:37:38.030Z,100915.97
2022-12-08T00:40:09.918Z,100907.22
2022-12-08T00:42:38.248Z,100914.25
2022-12-08T00:45:08.077Z,100907.28
2022-12-08T00:47:36.445Z,100908.16
2022-12-08T00:50:05.394Z,100810.44
2022-12-08T00:52:34.003Z,100898.56
2022-12-08T00:55:02.207Z,100893.31
2022-12-08T00:57:31.946Z,100870.34
2022-12-08T01:00:00.360Z,100893.34
2022-12-08T01:02:28.765Z,100891.63
2022-12-08T01:04:57.066Z,100888.19
2022-12-08T01:07:25.376Z,100894.34
2022-12-08T01:09:53.694Z,100889.78
2022-12-08T01:12:22.030Z,100908.31
2022-12-08T01:14:51.628Z,100902.25
2022-12-08T01:17:19.847Z,100900.53
2022-12-08T01:19:48.094Z,100868.88
2022-12-08T01:22:16.395Z,100889.16
2022-12-08T01:24:44.648Z,100885.66
2022-12-08T01:27:12.928Z,100855.72
2022-12-08T01:29:41.133Z,100890.06
2022-12-08T01:32:11.093Z,100868.94
2022-12-08T01:34:39.510Z,100885.69
2022-12-08T01:37:07.711Z,100888.38
2022-12-08T01:39:36.647Z,100874.28
2022-12-08T01:42:05.198Z,100873.44
2022-12-08T01:44:58.552Z,100871.69
2022-12-08T01:47:36.246Z,100873.38
2022-12-08T01:50:08.548Z,100749.31
2022-12-08T01:52:42.801Z,100832.03
2022-12-08T01:55:18.035Z,100867.22
2022-12-08T01:57:49.082Z,100861.91
2022-12-08T02:00:21.243Z,100855.75
2022-12-08T02:02:57.711Z,100830.09
2022-12-08T02:05:29.930Z,100860.81
2022-12-08T02:07:59.594Z,100862.59
2022-12-08T02:10:31.921Z,100875.59
2022-12-08T02:13:01.791Z,100864.06
2022-12-08T02:15:50.492Z,100872.84
2022-12-08T02:18:41.783Z,100856.00
2022-12-08T02:21:15.365Z,100853.25
2022-12-08T02:23:53.521Z,100859.34
2022-12-08T02:27:19.272Z,100828.56
2022-12-08T02:30:08.528Z,100847.94
2022-12-08T02:33:24.137Z,100850.63
2022-12-08T02:35:59.638Z,100839.78
2022-12-08T02:38:45.747Z,100818.84
2022-12-08T02:41:26.759Z,100814.47
2022-12-08T02:44:02.543Z,100820.63
2022-12-08T02:46:34.427Z,100815.44
2022-12-08T02:49:05.143Z,100813.69
2022-12-08T02:51:34.608Z,100812.13
2022-12-08T02:54:04.534Z,100808.63
2022-12-08T02:56:53.285Z,100808.66
2022-12-08T02:59:50.034Z,100811.13
2022-12-08T03:02:40.907Z,100811.97
2022-12-08T03:05:24.917Z,100805.63
2022-12-08T03:08:03.135Z,100774.06
2022-12-08T03:10:38.539Z,100795.09
2022-12-08T03:13:11.194Z,100703.72
2022-12-08T03:15:41.258Z,100783.88
2022-12-08T03:18:14.676Z,100780.41
2022-12-08T03:20:45.211Z,100778.75
2022-12-08T03:23:17.685Z,100771.72
2022-12-08T03:25:53.722Z,100768.16
2022-12-08T03:28:22.326Z,100777.97
2022-12-08T03:30:56.211Z,100776.09
2022-12-08T03:33:28.009Z,100755.00
2022-12-08T03:35:57.075Z,100771.72
2022-12-08T03:38:26.949Z,100774.41
2022-12-08T03:41:09.558Z,100775.38
2022-12-08T03:43:37.838Z,100768.38
2022-12-08T03:46:06.481Z,100765.81
2022-12-08T03:48:34.755Z,100759.69
2022-12-08T03:51:03.092Z,100763.22
2022-12-08T03:53:32.714Z,100776.38
2022-12-08T03:56:00.944Z,100761.28
2022-12-08T03:58:34.319Z,100763.66
2022-12-08T04:01:05.449Z,100755.78
2022-12-08T04:03:33.778Z,100720.53
2022-12-08T04:06:01.995Z,100760.16
2022-12-08T04:08:30.368Z,100762.28
2022-12-08T04:10:59.997Z,100768.81
2022-12-08T04:13:28.586Z,100765.03
2022-12-08T04:15:56.913Z,100767.50
2022-12-08T04:18:25.185Z,100766.16
2022-12-08T04:20:54.148Z,100762.69
2022-12-08T04:23:22.418Z,100745.34
2022-12-08T04:25:52.351Z,100766.25
2022-12-08T04:28:22.641Z,100768.41
2022-12-08T04:30:51.329Z,100770.13
2022-12-08T04:33:19.521Z,100770.59
2022-12-08T04:35:47.851Z,100739.63
2022-12-08T04:38:16.224Z,100733.94
2022-12-08T04:40:44.517Z,100732.56
2022-12-08T04:43:12.816Z,100714.31
2022-12-08T04:45:43.560Z,100694.16
2022-12-08T04:48:13.275Z,100728.63
2022-12-08T04:50:43.696Z,100733.94
2022-12-08T04:53:14.197Z,100631.19
2022-12-08T04:55:43.864Z,100713.97
2022-12-08T04:58:14.850Z,100687.63
2022-12-08T05:00:45.070Z,100713.91
2022-12-08T05:03:14.388Z,100711.41
2022-12-08T05:05:43.436Z,100682.38
2022-12-08T05:08:12.225Z,100704.59
2022-12-08T05:10:40.608Z,100709.78
2022-12-08T05:13:08.903Z,100707.28
2022-12-08T05:15:37.099Z,100702.88
2022-12-08T05:18:08.158Z,100708.94
2022-12-08T05:20:36.666Z,100705.50
2022-12-08T05:23:04.909Z,100688.75
2022-12-08T05:25:33.204Z,100708.00
2022-12-08T05:28:32.884Z,100626.84
2022-12-08T05:30:49.988Z,100693.56
2022-12-08T05:33:19.651Z,100708.34
2022-12-08T05:35:47.926Z,100705.50
2022-12-08T05:38:16.153Z,100711.41
2022-12-08T05:40:44.434Z,100708.78
2022-12-08T05:43:12.650Z,100712.94
2022-12-08T05:45:40.979Z,100717.31
2022-12-08T05:48:09.211Z,100714.69
2022-12-08T05:50:38.940Z,100705.06
2022-12-08T05:53:07.277Z,100710.41
2022-12-08T05:55:35.480Z,100722.66
2022-12-08T05:58:07.877Z,100726.94
2022-12-08T06:00:36.518Z,100731.34
2022-12-08T06:03:05.109Z,100735.69
2022-12-08T06:05:34.104Z,100727.97
2022-12-08T06:08:03.894Z,100733.97
2022-12-08T06:10:32.227Z,100725.25
2022-12-08T06:13:00.834Z,100731.41
2022-12-08T06:15:29.124Z,100735.97
2022-12-08T06:17:57.390Z,100725.38
2022-12-08T06:20:25.705Z,100707.06
2022-12-08T06:22:55.511Z,100726.72
2022-12-08T06:25:25.649Z,100718.03
2022-12-08T06:27:53.984Z,100720.81
2022-12-08T06:30:22.286Z,100689.31
2022-12-08T06:32:50.541Z,100717.56
2022-12-08T06:35:19.192Z,100714.16
2022-12-08T06:37:47.508Z,100717.81
2022-12-08T06:40:16.111Z,100716.13
2022-12-08T06:42:47.297Z,100714.41
2022-12-08T06:45:18.619Z,100716.25
2022-12-08T06:47:46.915Z,100719.81
2022-12-08T06:50:16.073Z,100714.66
2022-12-08T06:52:57.002Z,100711.16
2022-12-08T06:58:21.642Z,100681.34
2022-12-08T07:00:50.131Z,100689.34
2022-12-08T07:03:18.488Z,100686.72
2022-12-08T07:05:46.762Z,100682.31
2022-12-08T07:08:15.217Z,100684.97
2022-12-08T07:10:43.670Z,100693.75
2022-12-08T07:13:11.925Z,100655.97
2022-12-08T07:15:41.607Z,100705.22
2022-12-08T07:18:09.920Z,100688.53
2022-12-08T07:20:38.623Z,100704.31
2022-12-08T07:23:06.991Z,100699.91
2022-12-08T07:25:35.372Z,100674.41
2022-12-08T07:28:09.117Z,100704.28
2022-12-08T07:30:37.485Z,100678.75
2022-12-08T07:33:07.301Z,100705.13
2022-12-08T07:35:35.679Z,100699.00
2022-12-08T07:38:04.194Z,100567.97
2022-12-08T07:40:32.472Z,100687.53
2022-12-08T07:43:00.793Z,100708.56
2022-12-08T07:45:31.732Z,100696.31
2022-12-08T07:48:00.493Z,100698.09
2022-12-08T07:50:30.138Z,100696.28
2022-12-08T07:52:58.450Z,100692.75
2022-12-08T07:55:26.990Z,100692.75
2022-12-08T07:57:55.760Z,100689.19
2022-12-08T08:00:24.266Z,100684.78
2022-12-08T08:02:52.797Z,100679.53
2022-12-08T08:05:21.113Z,100687.44
2022-12-08T08:07:50.879Z,100683.91
2022-12-08T08:10:19.338Z,100677.78
2022-12-08T08:12:47.796Z,100689.09
2022-12-08T08:15:17.368Z,100692.63
2022-12-08T08:17:45.634Z,100688.25
2022-12-08T08:20:15.258Z,100693.56
2022-12-08T08:22:43.562Z,100694.41
2022-12-08T08:25:13.237Z,100689.16
2022-12-08T08:27:41.629Z,100687.41
2022-12-08T08:30:16.731Z,100692.66
2022-12-08T08:32:48.637Z,100696.25
2022-12-08T08:35:17.246Z,100690.03
2022-12-08T08:37:49.074Z,100715.22
2022-12-08T08:40:19.551Z,100719.38
2022-12-08T08:42:47.895Z,100715.28
2022-12-08T08:45:16.242Z,100706.16
2022-12-08T08:47:44.703Z,100728.41
2022-12-08T08:50:13.313Z,100722.13
2022-12-08T08:52:43.096Z,100727.22
2022-12-08T08:55:11.790Z,100730.06
2022-12-08T08:57:41.563Z,100729.84
2022-12-08T09:00:13.375Z,100713.56
2022-12-08T09:02:41.672Z,100736.38
2022-12-08T09:05:10.871Z,100739.56
2022-12-08T09:07:39.222Z,100732.94
2022-12-08T09:10:09.655Z,100734.16
2022-12-08T09:12:37.983Z,100695.22
2022-12-08T09:15:09.005Z,100735.16
2022-12-08T09:17:38.184Z,100724.00
2022-12-08T09:20:08.832Z,100719.84
2022-12-08T09:22:37.159Z,100715.63
2022-12-08T09:25:06.284Z,100723.50
2022-12-08T09:27:35.077Z,100725.34
2022-12-08T09:30:03.754Z,100721.00
2022-12-08T09:32:33.602Z,100699.03
2022-12-08T09:35:02.278Z,100703.50
2022-12-08T09:37:30.506Z,100723.94
2022-12-08T09:40:00.646Z,100729.19
2022-12-08T09:42:42.670Z,100709.09
2022-12-08T09:45:14.337Z,100707.38
2022-12-08T09:47:59.854Z,100709.22
2022-12-08T09:50:35.113Z,100698.69
2022-12-08T09:53:11.067Z,100698.75
2022-12-08T09:55:45.274Z,100687.41
2022-12-08T09:58:23.116Z,100684.59
2022-12-08T10:00:51.474Z,100708.41
2022-12-08T10:03:24.008Z,100710.22
2022-12-08T10:06:03.342Z,100713.75
2022-12-08T10:08:44.530Z,100726.88
2022-12-08T10:11:21.178Z,100707.59
2022-12-08T10:13:56.393Z,100745.41
2022-12-08T10:16:34.708Z,100749.66
2022-12-08T10:19:16.222Z,100725.16
2022-12-08T10:21:46.728Z,100717.41
2022-12-08T10:24:24.246Z,100722.72
2022-12-08T10:26:52.653Z,100668.06
2022-12-08T10:29:21.040Z,100700.91
2022-12-08T10:31:49.427Z,100686.66
2022-12-08T10:34:24.274Z,100699.09
2022-12-08T10:36:56.076Z,100698.22
2022-12-08T10:39:37.803Z,100701.78
2022-12-08T10:42:20.729Z,100707.09
2022-12-08T10:44:59.713Z,100693.13
2022-12-08T10:47:30.656Z,100673.72
2022-12-08T10:50:33.188Z,100661.25
2022-12-08T10:53:03.639Z,100641.72
2022-12-08T10:55:43.269Z,100646.50
2022-12-08T10:58:30.735Z,100641.41
2022-12-08T11:01:05.097Z,100614.94
2022-12-08T11:03:37.040Z,100626.41
2022-12-08T11:06:18.755Z,100624.00
2022-12-08T11:08:51.802Z,100621.47
2022-12-08T11:11:27.484Z,100628.69
2022-12-08T11:13:57.803Z,100624.41
2022-12-08T11:16:26.145Z,100625.38
2022-12-08T11:18:59.040Z,100623.75
2022-12-08T11:21:37.905Z,100632.53
2022-12-08T11:24:23.472Z,100628.25
2022-12-08T11:26:55.664Z,100638.81
2022-12-08T11:29:24.260Z,100636.22
2022-12-08T11:31:59.354Z,100609.91
2022-12-08T11:34:39.955Z,100631.03
2022-12-08T11:37:18.775Z,100641.59
2022-12-08T11:39:51.833Z,100678.31
2022-12-08T11:42:25.821Z,100667.69
2022-12-08T11:44:58.911Z,100655.53
2022-12-08T11:47:32.227Z,100636.28
2022-12-08T11:50:19.574Z,100654.88
2022-12-08T11:52:52.670Z,100647.00
2022-12-08T11:55:37.053Z,100638.25
2022-12-08T11:58:17.781Z,100620.03
2022-12-08T12:00:46.175Z,100631.81
2022-12-08T12:03:26.500Z,100611.81
2022-12-08T12:06:38.030Z,100621.59
2022-12-08T12:09:14.142Z,100615.41
2022-12-08T12:12:15.983Z,100612.09
2022-12-08T12:15:30.682Z,100603.47
2022-12-08T12:18:03.291Z,100613.84
2022-12-08T12:20:36.230Z,100605.09
2022-12-08T12:23:09.281Z,100606.16
2022-12-08T12:25:47.318Z,100608.66
2022-12-08T12:28:15.967Z,100608.72
2022-12-08T12:31:00.341Z,100598.28
2022-12-08T12:33:31.461Z,100592.19
2022-12-08T12:36:05.237Z,100593.97
2022-12-08T12:38:54.456Z,100586.16
2022-12-08T12:41:32.201Z,100484.25
2022-12-08T12:44:37.982Z,100557.22
2022-12-08T12:47:13.067Z,100563.44
2022-12-08T12:50:09.119Z,100556.50
2022-12-08T12:52:40.577Z,100557.41
2022-12-08T12:55:54.157Z,100565.38
2022-12-08T12:58:43.560Z,100573.41
2022-12-08T13:01:39.685Z,100547.13
2022-12-08T13:04:10.689Z,100560.34
2022-12-08T13:06:43.506Z,100586.69
2022-12-08T13:09:28.172Z,100579.69
2022-12-08T13:12:00.060Z,100588.47
2022-12-08T13:14:34.024Z,100587.59
2022-12-08T13:17:07.411Z,100579.69
2022-12-08T13:19:40.071Z,100580.50
2022-12-08T13:23:10.132Z,100572.66
2022-12-08T13:25:54.601Z,100573.47
2022-12-08T13:28:29.429Z,100574.38
2022-12-08T13:31:00.984Z,100572.63
2022-12-08T13:33:35.099Z,100545.41
2022-12-08T13:36:22.214Z,100540.13
2022-12-08T13:38:56.756Z,100519.03
2022-12-08T13:41:34.466Z,100541.84
2022-12-08T13:56:59.724Z,100536.25
2022-12-08T13:58:35.472Z,100540.66
2022-12-08T14:01:10.020Z,100545.03
2022-12-08T14:04:12.845Z,100552.06
2022-12-08T14:06:44.044Z,100540.66
2022-12-08T14:09:16.360Z,100519.59
2022-12-08T14:11:47.914Z,100531.94
2022-12-08T14:14:45.777Z,100538.94
2022-12-08T14:17:13.236Z,100538.06
2022-12-08T14:19:45.640Z,100546.81
2022-12-08T14:22:17.165Z,100545.06
2022-12-08T14:24:46.786Z,100539.78
2022-12-08T14:27:18.851Z,100517.00
2022-12-08T14:29:49.979Z,100581.06
2022-12-08T14:32:30.156Z,100541.56
2022-12-08T14:35:03.699Z,100545.91
2022-12-08T14:37:36.644Z,100543.34
2022-12-08T14:40:11.878Z,100531.84
2022-12-08T14:42:45.781Z,100538.06
2022-12-08T14:45:16.825Z,100526.59
2022-12-08T14:47:45.715Z,100520.50
2022-12-08T14:50:42.643Z,100534.59
2022-12-08T14:53:17.764Z,100531.16
2022-12-08T14:55:49.275Z,100524.19
2022-12-08T14:58:27.803Z,100520.66
2022-12-08T15:00:58.870Z,100485.53
2022-12-08T15:03:30.402Z,100523.38
2022-12-08T15:06:05.309Z,100527.75
2022-12-08T15:08:34.401Z,100524.22
2022-12-08T15:11:31.453Z,100514.59
2022-12-08T15:14:00.459Z,100511.06
2022-12-08T15:16:33.025Z,100429.38
2022-12-08T15:19:10.705Z,100512.00
2022-12-08T15:21:44.044Z,100517.19
2022-12-08T15:24:13.193Z,100512.84
2022-12-08T15:26:48.602Z,100505.88
2022-12-08T15:29:23.332Z,100506.78
2022-12-08T15:31:53.390Z,100510.28
2022-12-08T15:34:22.551Z,100503.31
2022-12-08T15:36:55.166Z,100533.09
2022-12-08T15:39:33.820Z,100498.03
2022-12-08T15:42:03.301Z,100507.66
2022-12-08T15:44:32.893Z,100476.00
2022-12-08T15:47:02.176Z,100517.25
2022-12-08T15:49:30.851Z,100511.09
2022-12-08T15:52:11.231Z,100516.38
2022-12-08T15:54:40.360Z,100494.38
2022-12-08T15:57:22.235Z,100504.91
2022-12-08T15:59:58.788Z,100509.25
2022-12-08T16:02:49.188Z,100510.97
2022-12-08T16:05:41.606Z,100510.97
2022-12-08T16:08:23.344Z,100498.63
2022-12-08T16:11:56.796Z,100515.22
2022-12-08T16:14:36.794Z,100517.91
2022-12-08T16:16:54.076Z,100519.66
2022-12-08T16:19:22.371Z,100520.53
2022-12-08T16:22:17.741Z,100502.16
2022-12-08T16:24:40.669Z,100502.00
2022-12-08T16:30:00.999Z,100462.19
2022-12-08T16:32:29.942Z,100492.16
2022-12-08T16:34:58.244Z,100499.22
2022-12-08T16:37:29.111Z,100496.66
2022-12-08T16:40:00.302Z,100498.41
2022-12-08T16:42:40.073Z,100495.78
2022-12-08T16:45:12.199Z,100500.22
2022-12-08T16:47:42.865Z,100484.38
2022-12-08T16:50:13.158Z,100490.47
2022-12-08T16:52:41.628Z,100502.63
2022-12-08T16:55:13.685Z,100493.75
2022-12-08T16:57:42.346Z,100487.63
2022-12-08T17:00:15.131Z,100489.31
2022-12-08T17:02:45.149Z,100482.22
2022-12-08T17:05:15.546Z,100448.00
2022-12-08T17:07:45.597Z,100460.97
2022-12-08T17:10:20.123Z,100464.50
2022-12-08T17:12:48.693Z,100468.00
2022-12-08T17:15:21.362Z,100477.59
2022-12-08T17:17:50.057Z,100482.94
2022-12-08T17:20:22.435Z,100362.53
2022-12-08T17:22:51.710Z,100496.22
2022-12-08T17:25:21.702Z,100493.53
2022-12-08T17:27:50.311Z,100484.63
2022-12-08T17:30:19.261Z,100474.91
2022-12-08T17:32:47.763Z,100471.31
2022-12-08T17:35:16.727Z,100474.91
2022-12-08T17:37:45.220Z,100475.75
2022-12-08T17:40:13.989Z,100450.34
2022-12-08T17:42:43.932Z,100458.34
2022-12-08T17:45:12.759Z,100470.69
2022-12-08T17:47:41.147Z,100449.66
2022-12-08T17:50:10.706Z,100453.16
2022-12-08T17:52:39.163Z,100456.69
2022-12-08T17:55:09.078Z,100460.22
2022-12-08T17:57:37.344Z,100449.72
2022-12-08T18:00:11.021Z,100436.59
2022-12-08T18:02:42.479Z,100459.38
2022-12-08T18:05:10.990Z,100448.91
2022-12-08T18:07:39.320Z,100442.75
2022-12-08T18:10:09.390Z,100439.34
2022-12-08T18:12:37.836Z,100433.22
2022-12-08T18:15:12.974Z,100435.00
2022-12-08T18:17:41.354Z,100432.41
2022-12-08T18:20:11.468Z,100435.00
2022-12-08T18:22:40.580Z,100416.63
2022-12-08T18:25:10.791Z,100434.16
2022-12-08T18:27:43.165Z,100427.19
2022-12-08T18:30:18.193Z,100413.22
2022-12-08T18:32:46.979Z,100427.34
2022-12-08T18:35:15.294Z,100439.59
2022-12-08T18:37:44.123Z,100462.38
2022-12-08T18:40:14.856Z,100436.19
2022-12-08T18:42:43.310Z,100385.22
2022-12-08T18:45:17.896Z,100436.22
2022-12-08T18:47:51.101Z,100440.59
2022-12-08T18:50:20.199Z,100431.78
2022-12-08T18:52:48.755Z,100441.50
2022-12-08T18:55:17.344Z,100440.69
2022-12-08T18:57:45.657Z,100426.56
2022-12-08T19:00:19.061Z,100453.81
2022-12-08T19:02:47.567Z,100450.16
2022-12-08T19:05:16.154Z,100454.38
2022-12-08T19:07:45.910Z,100455.34
2022-12-08T19:10:14.660Z,100456.28
2022-12-08T19:12:43.186Z,100429.84
2022-12-08T19:15:12.775Z,100457.09
2022-12-08T19:17:42.458Z,100464.88
2022-12-08T19:20:12.050Z,100467.38
2022-12-08T19:22:40.444Z,100459.81
2022-12-08T19:25:09.741Z,100414.97
2022-12-08T19:27:38.078Z,100467.72
2022-12-08T19:30:08.712Z,100474.91
2022-12-08T19:32:37.252Z,100474.94
2022-12-08T19:35:07.585Z,100475.59
2022-12-08T19:37:36.489Z,100457.19
2022-12-08T19:40:24.839Z,100487.78
2022-12-08T19:43:16.267Z,100486.94
2022-12-08T19:45:44.801Z,100486.84
2022-12-08T19:48:14.037Z,100485.22
2022-12-08T19:50:43.946Z,100479.91
2022-12-08T19:53:15.678Z,100496.34
2022-12-08T19:55:45.209Z,100503.47
2022-12-08T19:58:13.505Z,100501.75
2022-12-08T20:00:42.690Z,100493.88
2022-12-08T20:03:15.939Z,100493.00
2022-12-08T20:05:47.068Z,100483.38
2022-12-08T20:08:15.553Z,100498.97
2022-12-08T20:10:45.755Z,100495.72
2022-12-08T20:13:31.720Z,100496.50
2022-12-08T20:16:00.461Z,100481.63
2022-12-08T20:18:29.653Z,100511.22
2022-12-08T20:20:59.473Z,100511.13
2022-12-08T20:23:27.852Z,100505.00
2022-12-08T20:25:56.222Z,100514.66
2022-12-08T20:28:26.439Z,100517.34
2022-12-08T20:30:54.834Z,100517.34
2022-12-08T20:33:23.347Z,100515.47
2022-12-08T20:36:01.425Z,100524.25
2022-12-08T20:38:30.386Z,100511.00
2022-12-08T20:40:59.433Z,100514.47
2022-12-08T20:43:28.359Z,100440.75
2022-12-08T20:45:56.678Z,100527.78
2022-12-08T20:48:25.096Z,100525.91
2022-12-08T20:50:55.058Z,100518.94
2022-12-08T20:53:24.864Z,100525.75
2022-12-08T20:55:53.309Z,100525.78
2022-12-08T20:58:21.817Z,100526.56
2022-12-08T21:00:50.573Z,100537.00
2022-12-08T21:03:19.313Z,100551.19
2022-12-08T21:05:50.797Z,100520.03
2022-12-08T21:08:20.452Z,100546.28
2022-12-08T21:10:56.491Z,100418.16
2022-12-08T21:13:25.340Z,100547.56
2022-12-08T21:15:54.074Z,100540.59
2022-12-08T21:18:22.994Z,100552.00
2022-12-08T21:20:52.775Z,100560.84
2022-12-08T21:23:21.428Z,100546.00
2022-12-08T21:25:49.959Z,100550.34
2022-12-08T21:28:19.680Z,100551.16
2022-12-08T21:30:48.121Z,100552.09
2022-12-08T21:33:17.944Z,100558.22
2022-12-08T21:35:46.553Z,100551.22
2022-12-08T21:38:14.895Z,100560.06
2022-12-08T21:40:43.341Z,100559.09
2022-12-08T21:43:13.339Z,100557.22
2022-12-08T21:45:43.650Z,100561.56
2022-12-08T21:48:12.414Z,100547.44
2022-12-08T21:50:40.833Z,100558.00
2022-12-08T21:53:09.513Z,100561.50
2022-12-08T21:55:37.903Z,100562.41
2022-12-08T21:58:06.276Z,100559.75
2022-12-08T22:00:35.085Z,100500.00
2022-12-08T22:03:05.398Z,100567.81
2022-12-08T22:05:36.237Z,100571.34
2022-12-08T22:08:04.709Z,100559.84
2022-12-08T22:10:33.256Z,100558.00
2022-12-08T22:13:02.196Z,100559.69
2022-12-08T22:15:30.705Z,100567.59
2022-12-08T22:17:59.243Z,100562.31
2022-12-08T22:20:29.161Z,100572.25
2022-12-08T22:22:57.521Z,100526.66
2022-12-08T22:25:25.765Z,100577.28
2022-12-08T22:27:54.047Z,100575.78
2022-12-08T22:30:22.688Z,100573.28
2022-12-08T22:32:51.097Z,100568.09
2022-12-08T22:35:19.438Z,100568.22
2022-12-08T22:37:50.788Z,100548.03
2022-12-08T22:40:19.581Z,100557.84
2022-12-08T22:42:47.906Z,100568.59
2022-12-08T22:45:16.215Z,100559.91
2022-12-08T22:47:44.490Z,100557.22
2022-12-08T22:50:13.176Z,100548.44
2022-12-08T22:52:41.618Z,100552.78
2022-12-08T22:55:11.773Z,100548.53
2022-12-08T22:57:40.069Z,100551.31
2022-12-08T23:00:11.543Z,100539.84
2022-12-08T23:02:40.543Z,100543.38
2022-12-08T23:05:12.595Z,100542.56
2022-12-08T23:07:41.169Z,100552.16
2022-12-08T23:10:12.033Z,100549.50
2022-12-08T23:12:40.721Z,100551.94
2022-12-08T23:15:10.603Z,100539.69
2022-12-08T23:17:39.163Z,100557.91
2022-12-08T23:20:09.848Z,100554.47
2022-12-08T23:22:38.530Z,100550.94
2022-12-08T23:25:08.206Z,100549.84
2022-12-08T23:27:38.716Z,100547.25
2022-12-08T23:30:08.590Z,100562.16
2022-12-08T23:32:37.290Z,100561.19
2022-12-08T23:35:07.497Z,100555.00
2022-12-08T23:37:36.151Z,100567.34
2022-12-08T23:40:05.792Z,100592.63
2022-12-08T23:42:34.397Z,100559.97
2022-12-08T23:45:04.540Z,100561.59
2022-12-08T23:47:32.929Z,100561.22
2022-12-08T23:50:01.393Z,100559.03
2022-12-08T23:52:29.965Z,100552.38
2022-12-08T23:54:58.168Z,100551.25
2022-12-08T23:57:26.497Z,100544.50
2022-12-08T23:59:54.658Z,100435.16
